createdAt,value
2023-03-28T00:00:41.787Z,23.50
2023-03-28T00:03:08.753Z,20.58
2023-03-28T00:05:40.186Z,23.42
2023-03-28T00:08:07.223Z,21.92
2023-03-28T00:10:34.324Z,22.65
2023-03-28T00:13:01.150Z,22.17
2023-03-28T00:15:28.704Z,22.02
2023-03-28T00:17:55.468Z,21.42
2023-03-28T00:20:22.273Z,25.52
2023-03-28T00:22:49.467Z,19.63
2023-03-28T00:25:16.293Z,16.38
2023-03-28T00:27:43.066Z,20.30
2023-03-28T00:30:11.075Z,23.00
2023-03-28T00:32:38.083Z,22.30
2023-03-28T00:35:05.353Z,23.75
2023-03-28T00:37:34.499Z,21.00
2023-03-28T00:40:01.699Z,21.35
2023-03-28T00:42:28.441Z,13.90
2023-03-28T00:44:57.209Z,18.25
2023-03-28T00:47:43.893Z,17.65
2023-03-28T00:50:20.350Z,16.48
2023-03-28T00:53:04.605Z,18.27
2023-03-28T00:56:06.838Z,19.40
2023-03-28T00:58:35.572Z,18.25
2023-03-28T01:01:02.440Z,16.73
2023-03-28T01:03:34.145Z,16.23
2023-03-28T01:06:06.467Z,19.98
2023-03-28T01:08:38.085Z,19.23
2023-03-28T01:11:06.287Z,21.13
2023-03-28T01:13:38.213Z,20.27
2023-03-28T01:16:07.207Z,20.20
2023-03-28T01:18:35.772Z,17.73
2023-03-28T01:21:05.877Z,19.70
2023-03-28T01:23:52.593Z,19.85
2023-03-28T01:27:12.429Z,22.83
2023-03-28T01:29:51.152Z,18.08
2023-03-28T01:32:17.868Z,19.65
2023-03-28T01:34:53.269Z,18.75
2023-03-28T01:37:41.877Z,21.05
2023-03-28T01:40:43.822Z,19.90
2023-03-28T01:43:32.920Z,20.50
2023-03-28T01:46:16.116Z,22.95
2023-03-28T01:48:48.609Z,24.58
2023-03-28T01:51:29.142Z,26.98
2023-03-28T01:54:18.091Z,25.58
2023-03-28T01:57:25.902Z,23.10
2023-03-28T02:00:15.850Z,23.95
2023-03-28T02:02:51.207Z,26.40
2023-03-28T02:05:22.393Z,22.85
2023-03-28T02:07:52.240Z,22.00
2023-03-28T02:10:22.870Z,23.48
2023-03-28T02:12:57.917Z,24.10
2023-03-28T02:15:26.397Z,38.47
2023-03-28T02:18:02.536Z,28.05
2023-03-28T02:20:33.751Z,25.80
2023-03-28T02:23:15.288Z,27.65
2023-03-28T02:25:43.343Z,27.02
2023-03-28T02:28:11.663Z,28.33
2023-03-28T02:30:40.161Z,26.65
2023-03-28T02:33:28.072Z,28.33
2023-03-28T02:36:06.940Z,27.45
2023-03-28T02:38:59.535Z,29.00
2023-03-28T02:41:51.572Z,27.05
2023-03-28T02:44:36.450Z,29.00
2023-03-28T02:47:17.793Z,22.33
2023-03-28T02:49:56.965Z,28.17
2023-03-28T02:52:58.663Z,25.67
2023-03-28T02:55:33.658Z,29.65
2023-03-28T02:58:18.366Z,31.40
2023-03-28T03:00:45.129Z,27.35
2023-03-28T03:03:11.930Z,24.95
2023-03-28T03:05:38.838Z,24.55
2023-03-28T03:08:05.902Z,23.15
2023-03-28T03:10:32.705Z,22.95
2023-03-28T03:12:59.650Z,23.35
2023-03-28T03:15:30.950Z,27.23
2023-03-28T03:18:02.488Z,22.88
2023-03-28T03:20:33.642Z,24.63
2023-03-28T03:23:01.605Z,23.23
2023-03-28T03:25:31.379Z,24.02
2023-03-28T03:27:58.197Z,24.20
2023-03-28T03:30:25.512Z,24.33
2023-03-28T03:32:52.396Z,24.70
2023-03-28T03:35:20.230Z,25.25
2023-03-28T03:37:47.140Z,26.20
2023-03-28T03:40:14.035Z,24.02
2023-03-28T03:42:41.279Z,26.00
2023-03-28T03:45:09.788Z,29.10
2023-03-28T03:47:36.941Z,22.80
2023-03-28T03:50:04.209Z,26.52
2023-03-28T03:52:30.891Z,30.15
2023-03-28T03:54:57.986Z,23.77
2023-03-28T03:57:24.740Z,29.02
2023-03-28T03:59:52.255Z,26.23
2023-03-28T04:02:19.301Z,24.40
2023-03-28T04:04:47.836Z,24.77
2023-03-28T04:07:15.508Z,25.83
2023-03-28T04:09:43.769Z,23.63
2023-03-28T04:12:12.108Z,27.48
2023-03-28T04:14:38.979Z,22.17
2023-03-28T04:17:06.855Z,28.35
2023-03-28T04:19:33.706Z,28.15
2023-03-28T04:22:00.493Z,27.98
2023-03-28T04:24:27.271Z,22.00
2023-03-28T04:26:56.129Z,25.15
2023-03-28T04:29:32.617Z,25.10
2023-03-28T04:31:59.600Z,28.83
2023-03-28T04:34:30.071Z,26.27
2023-03-28T04:37:03.819Z,24.38
2023-03-28T04:39:32.863Z,26.00
2023-03-28T04:42:04.081Z,26.70
2023-03-28T04:44:31.634Z,31.88
2023-03-28T04:46:59.732Z,25.50
2023-03-28T04:49:27.820Z,30.00
2023-03-28T04:51:54.727Z,30.27
2023-03-28T04:54:21.482Z,28.13
2023-03-28T04:56:48.334Z,29.58
2023-03-28T04:59:16.093Z,30.80
2023-03-28T05:01:48.957Z,27.50
2023-03-28T05:04:17.795Z,28.85
2023-03-28T05:06:46.584Z,31.20
2023-03-28T05:09:14.401Z,29.67
2023-03-28T05:11:41.277Z,29.95
2023-03-28T05:14:08.325Z,28.65
2023-03-28T05:16:35.842Z,36.65
2023-03-28T05:19:02.852Z,32.17
2023-03-28T05:21:29.623Z,29.15
2023-03-28T05:23:58.450Z,34.97
2023-03-28T05:26:25.711Z,33.63
2023-03-28T05:28:54.528Z,31.52
2023-03-28T05:31:21.512Z,33.42
2023-03-28T05:33:48.238Z,32.97
2023-03-28T05:36:15.103Z,33.95
2023-03-28T05:38:42.226Z,32.08
2023-03-28T05:41:08.967Z,30.77
2023-03-28T05:43:35.737Z,30.83
2023-03-28T05:46:02.536Z,33.90
2023-03-28T05:48:29.307Z,33.85
2023-03-28T05:50:56.470Z,26.63
2023-03-28T05:53:23.257Z,24.17
2023-03-28T05:55:51.189Z,27.83
2023-03-28T05:58:17.875Z,32.63
2023-03-28T06:00:44.701Z,27.13
2023-03-28T06:03:16.385Z,25.50
2023-03-28T06:05:43.948Z,31.25
2023-03-28T06:08:10.917Z,34.85
2023-03-28T06:10:40.697Z,31.45
2023-03-28T06:13:07.437Z,34.77
2023-03-28T06:15:34.139Z,35.63
2023-03-28T06:18:00.943Z,35.67
2023-03-28T06:20:27.921Z,31.73
2023-03-28T06:22:54.763Z,34.40
2023-03-28T06:25:21.809Z,32.60
2023-03-28T06:27:49.485Z,33.83
2023-03-28T06:30:16.328Z,33.50
2023-03-28T06:32:43.093Z,30.05
2023-03-28T06:35:10.095Z,32.33
2023-03-28T06:37:36.852Z,28.17
2023-03-28T06:40:03.853Z,30.63
2023-03-28T06:42:30.847Z,30.23
2023-03-28T06:44:57.751Z,27.77
2023-03-28T06:47:24.551Z,27.45
2023-03-28T06:49:51.271Z,29.73
2023-03-28T06:52:18.156Z,30.63
2023-03-28T06:54:47.200Z,25.20
2023-03-28T06:57:15.923Z,27.92
2023-03-28T06:59:42.784Z,29.23
2023-03-28T07:02:12.468Z,28.83
2023-03-28T07:04:39.425Z,28.23
2023-03-28T07:07:09.275Z,26.13
2023-03-28T07:09:37.098Z,22.58
2023-03-28T07:12:04.667Z,28.98
2023-03-28T07:14:31.530Z,23.00
2023-03-28T07:16:58.387Z,23.55
2023-03-28T07:19:25.333Z,26.42
2023-03-28T07:21:53.139Z,26.38
2023-03-28T07:24:20.195Z,23.67
2023-03-28T07:26:47.112Z,20.48
2023-03-28T07:29:13.853Z,22.70
2023-03-28T07:31:41.237Z,22.25
2023-03-28T07:34:08.264Z,23.70
2023-03-28T07:36:38.093Z,24.52
2023-03-28T07:39:05.158Z,24.55
2023-03-28T07:41:32.155Z,27.38
2023-03-28T07:43:58.981Z,25.10
2023-03-28T07:46:25.795Z,23.85
2023-03-28T07:48:52.606Z,21.92
2023-03-28T07:51:19.556Z,21.73
2023-03-28T07:53:46.290Z,25.85
2023-03-28T07:56:13.302Z,27.90
2023-03-28T07:58:41.025Z,20.90
2023-03-28T08:01:09.511Z,20.88
2023-03-28T08:03:36.621Z,19.38
2023-03-28T08:06:13.371Z,15.82
2023-03-28T08:08:43.727Z,20.30
2023-03-28T08:11:13.640Z,16.10
2023-03-28T08:13:40.517Z,15.57
2023-03-28T08:16:08.328Z,13.38
2023-03-28T08:18:35.253Z,14.25
2023-03-28T08:21:03.551Z,13.90
2023-03-28T08:23:30.784Z,11.77
2023-03-28T08:26:04.620Z,15.30
2023-03-28T08:28:36.116Z,12.57
2023-03-28T08:31:14.636Z,8.93
2023-03-28T08:33:42.739Z,10.30
2023-03-28T08:36:14.476Z,12.85
2023-03-28T08:38:45.922Z,13.90
2023-03-28T08:41:30.992Z,12.07
2023-03-28T08:44:28.699Z,12.98
2023-03-28T08:47:02.001Z,13.27
2023-03-28T08:49:30.728Z,12.73
2023-03-28T08:52:00.787Z,13.57
2023-03-28T08:54:31.477Z,13.27
2023-03-28T08:59:52.007Z,13.90
2023-03-28T09:02:26.629Z,14.07
2023-03-28T09:04:58.018Z,16.05
2023-03-28T09:07:56.622Z,14.18
2023-03-28T09:10:38.372Z,16.80
2023-03-28T09:13:27.007Z,15.68
2023-03-28T09:16:21.341Z,16.70
2023-03-28T09:19:01.750Z,16.42
2023-03-28T09:21:38.592Z,15.75
2023-03-28T09:24:20.357Z,18.40
2023-03-28T09:26:55.029Z,19.67
2023-03-28T09:29:25.979Z,15.68
2023-03-28T09:32:01.780Z,15.02
2023-03-28T09:34:36.362Z,14.82
2023-03-28T09:37:31.900Z,14.77
2023-03-28T09:40:20.176Z,17.08
2023-03-28T09:43:10.791Z,14.98
2023-03-28T09:46:02.908Z,13.63
2023-03-28T09:48:35.604Z,11.77
2023-03-28T09:51:04.776Z,12.43
2023-03-28T09:53:36.631Z,10.68
2023-03-28T09:56:21.733Z,10.57
2023-03-28T09:58:56.963Z,12.43
2023-03-28T10:01:43.933Z,10.50
2023-03-28T10:04:15.346Z,9.10
2023-03-28T10:06:43.409Z,7.72
2023-03-28T10:09:18.183Z,8.50
2023-03-28T10:12:09.921Z,6.80
2023-03-28T10:14:37.897Z,10.75
2023-03-28T10:17:12.251Z,10.93
2023-03-28T10:19:42.011Z,14.13
2023-03-28T10:22:12.701Z,13.47
2023-03-28T10:27:24.032Z,15.45
2023-03-28T10:29:56.478Z,15.30
2023-03-28T10:32:28.259Z,15.25
2023-03-28T10:35:00.653Z,15.50
2023-03-28T10:37:29.564Z,15.05
2023-03-28T10:40:01.123Z,15.32
2023-03-28T10:42:28.254Z,19.70
2023-03-28T10:45:02.046Z,19.45
2023-03-28T10:47:30.285Z,17.63
2023-03-28T10:49:57.550Z,14.65
2023-03-28T10:52:24.770Z,15.73
2023-03-28T10:54:57.595Z,19.65
2023-03-28T10:57:27.760Z,13.32
2023-03-28T11:00:06.737Z,11.75
2023-03-28T11:02:52.932Z,14.50
2023-03-28T11:05:40.518Z,15.05
2023-03-28T11:08:15.031Z,13.05
2023-03-28T11:10:53.538Z,13.57
2023-03-28T11:13:40.956Z,13.48
2023-03-28T11:16:25.310Z,11.82
2023-03-28T11:19:15.657Z,14.23
2023-03-28T11:21:54.737Z,13.15
2023-03-28T11:24:27.966Z,9.73
2023-03-28T11:27:12.684Z,10.45
2023-03-28T11:29:46.763Z,13.00
2023-03-28T11:32:17.564Z,9.30
2023-03-28T11:34:48.083Z,5.63
2023-03-28T11:37:22.771Z,10.60
2023-03-28T11:39:59.545Z,11.57
2023-03-28T11:42:37.821Z,13.40
2023-03-28T11:45:08.249Z,10.38
2023-03-28T11:47:41.195Z,7.47
2023-03-28T11:50:15.116Z,12.63
2023-03-28T11:52:46.436Z,10.07
2023-03-28T11:55:20.596Z,13.50
2023-03-28T11:57:51.498Z,9.75
2023-03-28T12:03:00.028Z,10.25
2023-03-28T12:05:32.830Z,8.48
2023-03-28T12:08:04.591Z,7.70
2023-03-28T12:10:36.275Z,10.68
2023-03-28T12:13:11.704Z,8.80
2023-03-28T12:15:48.847Z,8.60
2023-03-28T12:18:20.326Z,11.25
2023-03-28T12:21:00.605Z,8.27
2023-03-28T12:23:54.149Z,11.93
2023-03-28T12:26:28.701Z,8.25
2023-03-28T12:28:58.160Z,15.95
2023-03-28T12:31:26.625Z,10.60
2023-03-28T12:34:09.022Z,14.90
2023-03-28T12:36:51.909Z,7.03
2023-03-28T12:39:19.541Z,8.18
2023-03-28T12:41:46.869Z,10.55
2023-03-28T12:44:29.344Z,9.48
2023-03-28T12:46:58.871Z,11.93
2023-03-28T12:49:29.102Z,8.63
2023-03-28T12:51:58.102Z,6.85
2023-03-28T12:54:29.781Z,4.30
2023-03-28T12:57:01.996Z,7.25
2023-03-28T12:59:41.345Z,8.23
2023-03-28T13:02:24.389Z,7.28
2023-03-28T13:04:54.586Z,10.75
2023-03-28T13:07:29.648Z,10.90
2023-03-28T13:10:00.397Z,10.52
2023-03-28T13:12:30.773Z,6.95
2023-03-28T13:14:59.703Z,5.20
2023-03-28T13:17:28.232Z,8.90
2023-03-28T13:20:01.258Z,5.78
2023-03-28T13:22:30.638Z,11.48
2023-03-28T13:25:21.090Z,9.00
2023-03-28T13:27:49.130Z,11.10
2023-03-28T13:30:20.817Z,7.05
2023-03-28T13:32:52.761Z,6.53
2023-03-28T13:35:38.695Z,8.57
2023-03-28T13:38:24.300Z,7.18
2023-03-28T13:40:55.843Z,7.28
2023-03-28T13:43:22.990Z,8.52
2023-03-28T13:45:50.764Z,12.82
2023-03-28T13:48:18.151Z,10.13
2023-03-28T13:50:46.309Z,13.38
2023-03-28T13:53:13.409Z,11.57
2023-03-28T13:55:43.087Z,8.73
2023-03-28T13:58:13.224Z,7.47
2023-03-28T14:00:41.010Z,6.65
2023-03-28T14:03:14.145Z,5.78
2023-03-28T14:05:45.681Z,10.15
2023-03-28T14:08:15.728Z,6.90
2023-03-28T14:10:43.914Z,13.15
2023-03-28T14:13:16.524Z,11.18
2023-03-28T14:15:44.203Z,10.43
2023-03-28T14:18:37.333Z,9.00
2023-03-28T14:21:07.704Z,9.52
2023-03-28T14:23:38.290Z,10.85
2023-03-28T14:28:41.103Z,15.05
2023-03-28T14:31:12.869Z,19.85
2023-03-28T14:33:42.456Z,11.57
2023-03-28T14:36:14.837Z,13.13
2023-03-28T14:38:42.820Z,13.85
2023-03-28T14:41:15.675Z,10.48
2023-03-28T14:43:42.937Z,11.07
2023-03-28T14:46:11.507Z,8.65
2023-03-28T14:48:39.856Z,11.70
2023-03-28T14:51:07.940Z,8.57
2023-03-28T14:53:36.823Z,10.23
2023-03-28T14:56:12.710Z,14.07
2023-03-28T14:58:41.232Z,8.13
2023-03-28T15:01:09.245Z,8.43
2023-03-28T15:03:39.155Z,16.40
2023-03-28T15:06:09.441Z,8.98
2023-03-28T15:08:38.387Z,15.82
2023-03-28T15:11:14.161Z,8.02
2023-03-28T15:13:42.304Z,11.55
2023-03-28T15:16:16.832Z,13.73
2023-03-28T15:18:47.243Z,16.67
2023-03-28T15:21:15.235Z,9.18
2023-03-28T15:23:50.247Z,11.43
2023-03-28T15:26:26.414Z,12.00
2023-03-28T15:28:55.053Z,12.35
2023-03-28T15:31:22.608Z,14.88
2023-03-28T15:33:51.332Z,15.60
2023-03-28T15:36:20.327Z,19.27
2023-03-28T15:38:50.395Z,14.55
2023-03-28T15:41:28.877Z,16.80
2023-03-28T15:43:56.059Z,18.13
2023-03-28T15:46:29.335Z,19.17
2023-03-28T15:49:03.653Z,17.58
2023-03-28T15:51:31.334Z,14.57
2023-03-28T15:54:00.112Z,14.07
2023-03-28T15:56:31.073Z,15.70
2023-03-28T15:59:06.405Z,16.17
2023-03-28T16:01:34.405Z,15.25
2023-03-28T16:04:20.750Z,18.67
2023-03-28T16:06:48.126Z,16.05
2023-03-28T16:09:15.962Z,20.00
2023-03-28T16:11:43.712Z,17.83
2023-03-28T16:14:14.552Z,19.98
2023-03-28T16:16:41.994Z,23.02
2023-03-28T16:19:21.171Z,21.13
2023-03-28T16:21:48.883Z,19.52
2023-03-28T16:24:16.312Z,18.55
2023-03-28T16:26:43.307Z,17.65
2023-03-28T16:29:11.441Z,18.80
2023-03-28T16:31:39.134Z,20.50
2023-03-28T16:34:08.515Z,20.95
2023-03-28T16:36:36.611Z,19.27
2023-03-28T16:39:05.333Z,25.75
2023-03-28T16:41:32.493Z,18.63
2023-03-28T16:43:59.797Z,19.60
2023-03-28T16:46:26.730Z,20.25
2023-03-28T16:48:53.483Z,17.77
2023-03-28T16:51:20.585Z,18.35
2023-03-28T16:53:48.651Z,15.73
2023-03-28T16:56:15.641Z,13.15
2023-03-28T16:58:43.054Z,11.48
2023-03-28T17:01:15.588Z,12.40
2023-03-28T17:03:42.465Z,17.38
2023-03-28T17:06:11.429Z,14.68
2023-03-28T17:08:38.827Z,73.32
2023-03-28T17:11:09.155Z,20.92
2023-03-28T17:13:37.695Z,22.20
2023-03-28T17:16:06.331Z,25.50
2023-03-28T17:18:33.164Z,19.85
2023-03-28T17:21:04.829Z,17.08
2023-03-28T17:23:32.879Z,34.33
2023-03-28T17:26:00.777Z,36.42
2023-03-28T17:28:28.948Z,28.50
2023-03-28T17:30:56.226Z,24.63
2023-03-28T17:33:23.607Z,32.95
2023-03-28T17:35:50.785Z,38.80
2023-03-28T17:38:18.691Z,36.40
2023-03-28T17:40:49.556Z,26.95
2023-03-28T17:43:16.646Z,63.78
2023-03-28T17:45:44.257Z,49.58
2023-03-28T17:48:12.610Z,51.28
2023-03-28T17:50:39.453Z,28.88
2023-03-28T17:53:07.729Z,32.25
2023-03-28T17:55:34.733Z,25.90
2023-03-28T17:58:02.161Z,22.55
2023-03-28T18:00:31.304Z,28.17
2023-03-28T18:02:58.326Z,24.52
2023-03-28T18:05:25.382Z,25.58
2023-03-28T18:07:52.193Z,24.15
2023-03-28T18:10:19.011Z,22.40
2023-03-28T18:12:45.878Z,24.10
2023-03-28T18:15:13.177Z,31.85
2023-03-28T18:17:40.263Z,26.00
2023-03-28T18:20:08.765Z,23.42
2023-03-28T18:22:36.893Z,22.15
2023-03-28T18:25:05.077Z,22.52
2023-03-28T18:27:32.429Z,19.30
2023-03-28T18:30:01.330Z,21.40
2023-03-28T18:32:28.182Z,22.30
2023-03-28T18:34:55.186Z,26.58
2023-03-28T18:37:22.096Z,22.63
2023-03-28T18:39:49.003Z,37.53
2023-03-28T18:42:18.486Z,22.63
2023-03-28T18:44:45.181Z,25.42
2023-03-28T18:47:12.826Z,29.50
2023-03-28T18:49:40.978Z,25.23
2023-03-28T18:52:10.596Z,24.10
2023-03-28T18:54:39.100Z,22.02
2023-03-28T18:57:07.140Z,29.30
2023-03-28T18:59:34.189Z,29.77
2023-03-28T19:02:01.351Z,26.05
2023-03-28T19:04:28.444Z,23.10
2023-03-28T19:06:55.289Z,28.27
2023-03-28T19:09:22.282Z,25.00
2023-03-28T19:11:53.037Z,30.48
2023-03-28T19:14:19.877Z,25.40
2023-03-28T19:16:47.049Z,27.98
2023-03-28T19:19:14.117Z,37.50
2023-03-28T19:21:40.797Z,30.30
2023-03-28T19:24:07.922Z,24.55
2023-03-28T19:26:34.889Z,26.55
2023-03-28T19:29:01.643Z,24.60
2023-03-28T19:31:28.317Z,28.27
2023-03-28T19:33:55.173Z,23.88
2023-03-28T19:36:22.135Z,27.30
2023-03-28T19:38:48.925Z,24.23
2023-03-28T19:41:24.421Z,28.25
2023-03-28T19:43:52.420Z,23.67
2023-03-28T19:46:23.847Z,21.98
2023-03-28T19:48:52.913Z,23.65
2023-03-28T19:51:19.655Z,24.67
2023-03-28T19:53:46.506Z,23.20
2023-03-28T19:56:14.403Z,21.55
2023-03-28T19:58:41.809Z,27.42
2023-03-28T20:01:08.618Z,24.38
2023-03-28T20:03:36.388Z,25.80
2023-03-28T20:06:09.013Z,20.88
2023-03-28T20:08:35.864Z,22.20
2023-03-28T20:11:03.787Z,28.45
2023-03-28T20:13:31.077Z,27.67
2023-03-28T20:16:02.181Z,31.38
2023-03-28T20:18:29.031Z,34.10
2023-03-28T20:20:57.945Z,28.95
2023-03-28T20:23:26.320Z,31.95
2023-03-28T20:25:55.390Z,29.27
2023-03-28T20:28:24.757Z,30.48
2023-03-28T20:30:55.184Z,26.35
2023-03-28T20:33:22.283Z,27.83
2023-03-28T20:36:00.448Z,30.70
2023-03-28T20:38:27.844Z,26.85
2023-03-28T20:40:54.634Z,22.92
2023-03-28T20:43:21.474Z,28.38
2023-03-28T20:45:53.900Z,27.25
2023-03-28T20:48:36.012Z,32.72
2023-03-28T20:51:14.337Z,24.02
2023-03-28T20:53:43.787Z,27.77
2023-03-28T20:56:12.001Z,24.85
2023-03-28T20:58:39.569Z,24.58
2023-03-28T21:01:09.091Z,23.73
2023-03-28T21:03:51.158Z,32.13
2023-03-28T21:06:24.860Z,21.92
2023-03-28T21:08:54.595Z,26.35
2023-03-28T21:11:26.839Z,22.60
2023-03-28T21:13:54.800Z,22.35
2023-03-28T21:16:23.434Z,24.10
2023-03-28T21:18:50.605Z,23.75
2023-03-28T21:21:19.389Z,21.25
2023-03-28T21:23:46.859Z,25.80
2023-03-28T21:26:19.334Z,23.52
2023-03-28T21:28:46.816Z,22.65
2023-03-28T21:31:16.144Z,22.17
2023-03-28T21:33:43.109Z,26.52
2023-03-28T21:36:12.439Z,24.10
2023-03-28T21:38:39.996Z,24.10
2023-03-28T21:41:07.507Z,23.42
2023-03-28T21:43:35.271Z,20.73
2023-03-28T21:46:03.215Z,23.67
2023-03-28T21:48:31.158Z,18.55
2023-03-28T21:50:59.895Z,19.70
2023-03-28T21:53:28.832Z,19.00
2023-03-28T21:55:56.366Z,19.58
2023-03-28T21:58:24.354Z,18.52
2023-03-28T22:00:51.106Z,18.38
2023-03-28T22:03:18.481Z,17.52
2023-03-28T22:05:46.323Z,19.25
2023-03-28T22:08:17.014Z,21.40
2023-03-28T22:10:47.784Z,22.48
2023-03-28T22:13:15.095Z,21.02
2023-03-28T22:15:42.079Z,18.23
2023-03-28T22:18:09.472Z,17.50
2023-03-28T22:20:38.087Z,18.77
2023-03-28T22:23:06.138Z,20.80
2023-03-28T22:25:38.223Z,18.33
2023-03-28T22:28:10.236Z,20.42
2023-03-28T22:30:39.139Z,18.92
2023-03-28T22:33:07.036Z,18.88
2023-03-28T22:35:34.066Z,17.30
2023-03-28T22:38:01.881Z,19.15
2023-03-28T22:40:29.999Z,18.80
2023-03-28T22:42:56.924Z,19.48
2023-03-28T22:45:26.518Z,19.27
2023-03-28T22:47:53.679Z,18.02
2023-03-28T22:50:22.116Z,16.58
2023-03-28T22:52:53.008Z,20.95
2023-03-28T22:55:22.447Z,17.08
2023-03-28T22:57:53.108Z,19.75
2023-03-28T23:00:23.661Z,17.45
2023-03-28T23:05:20.253Z,23.50
2023-03-28T23:07:47.572Z,19.58
2023-03-28T23:10:19.094Z,20.17
2023-03-28T23:12:46.065Z,17.60
2023-03-28T23:15:13.513Z,19.48
2023-03-28T23:17:40.505Z,23.70
2023-03-28T23:20:12.749Z,22.38
2023-03-28T23:22:42.790Z,15.25
2023-03-28T23:25:12.381Z,19.40
2023-03-28T23:27:40.668Z,15.05
2023-03-28T23:30:11.500Z,17.73
2023-03-28T23:32:38.239Z,17.83
2023-03-28T23:35:06.012Z,17.38
2023-03-28T23:37:38.315Z,24.08
2023-03-28T23:40:10.705Z,17.60
2023-03-28T23:42:39.028Z,19.25
2023-03-28T23:45:06.880Z,19.17
2023-03-28T23:47:33.966Z,16.20
2023-03-28T23:50:02.098Z,16.75
2023-03-28T23:52:28.831Z,22.77
2023-03-28T23:54:55.953Z,19.98
2023-03-28T23:57:25.258Z,17.63
2023-03-28T23:59:52.365Z,19.17
